PSDCG SWQI-SBEG
Flight info
| Callsign | PSDCG |
|---|---|
| Flight time | N/A |
| Altitude | 3500 |
| Route | VISUAL RULES |
| Aircraft | H160/L-V/N |
Departure
| Time | N/A |
|---|---|
| Airport | Fazenda Caturama Airstrip (SWQI) |
Arrival
| Time | 2026-05-06 03:38 |
|---|---|
| Airport | Eduardo Gomes International Airport (SBEG) |
| Time | Latitude | Longitude | Altitude | Speed | Heading |
|---|---|---|---|---|---|
| 2026-05-06 00:27 | 1.84388 | -61.12180 | 291 ft | 0 kts | 0° |
| 2026-05-06 00:28 | 1.85183 | -61.11767 | 294 ft | 0 kts | 207° |
| 2026-05-06 00:30 | 1.85041 | -61.11843 | 313 ft | 55 kts | 208° |
| 2026-05-06 00:30 | 1.84601 | -61.12073 | 409 ft | 79 kts | 207° |
| 2026-05-06 00:30 | 1.84080 | -61.12343 | 538 ft | 88 kts | 207° |
| 2026-05-06 00:30 | 1.83512 | -61.12648 | 634 ft | 93 kts | 209° |
| 2026-05-06 00:31 | 1.83018 | -61.12934 | 944 ft | 69 kts | 210° |
| 2026-05-06 00:31 | 1.82693 | -61.13138 | 1020 ft | 52 kts | 211° |
| 2026-05-06 00:31 | 1.82312 | -61.13382 | 1004 ft | 76 kts | 211° |
| 2026-05-06 00:31 | 1.81739 | -61.13687 | 989 ft | 108 kts | 205° |
| 2026-05-06 00:32 | 1.81066 | -61.13992 | 1010 ft | 104 kts | 205° |
| 2026-05-06 00:32 | 1.80398 | -61.14291 | 994 ft | 107 kts | 204° |
| 2026-05-06 00:32 | 1.79637 | -61.14623 | 993 ft | 127 kts | 204° |
| 2026-05-06 00:32 | 1.78845 | -61.14970 | 1002 ft | 122 kts | 204° |
| 2026-05-06 00:33 | 1.78042 | -61.15309 | 994 ft | 129 kts | 205° |
| 2026-05-06 00:33 | 1.77189 | -61.15632 | 989 ft | 137 kts | 206° |
| 2026-05-06 00:33 | 1.76238 | -61.15963 | 985 ft | 153 kts | 206° |
| 2026-05-06 00:33 | 1.75203 | -61.16335 | 993 ft | 161 kts | 206° |
| 2026-05-06 00:34 | 1.74149 | -61.16726 | 1024 ft | 161 kts | 207° |
| 2026-05-06 00:34 | 1.73093 | -61.17121 | 1004 ft | 162 kts | 207° |
| 2026-05-06 00:34 | 1.72032 | -61.17516 | 1058 ft | 163 kts | 207° |
| 2026-05-06 00:34 | 1.70983 | -61.17908 | 1175 ft | 159 kts | 207° |
| 2026-05-06 00:35 | 1.69969 | -61.18348 | 1296 ft | 160 kts | 211° |
| 2026-05-06 00:35 | 1.68960 | -61.18820 | 1403 ft | 160 kts | 211° |
| 2026-05-06 00:35 | 1.67965 | -61.19292 | 1533 ft | 160 kts | 211° |
| 2026-05-06 00:35 | 1.66955 | -61.19772 | 1639 ft | 160 kts | 211° |
| 2026-05-06 00:36 | 1.65942 | -61.20257 | 1741 ft | 161 kts | 211° |
| 2026-05-06 00:36 | 1.64947 | -61.20751 | 1884 ft | 161 kts | 211° |
| 2026-05-06 00:36 | 1.63937 | -61.21256 | 1976 ft | 163 kts | 211° |
| 2026-05-06 00:36 | 1.62926 | -61.21765 | 2097 ft | 163 kts | 212° |
| 2026-05-06 00:37 | 1.61907 | -61.22279 | 2253 ft | 163 kts | 211° |
| 2026-05-06 00:37 | 1.60891 | -61.22803 | 2344 ft | 165 kts | 211° |
| 2026-05-06 00:37 | 1.59862 | -61.23307 | 2435 ft | 164 kts | 209° |
| 2026-05-06 00:37 | 1.58835 | -61.23777 | 2492 ft | 164 kts | 207° |
| 2026-05-06 00:38 | 1.57779 | -61.24215 | 2501 ft | 164 kts | 206° |
| 2026-05-06 00:38 | 1.56720 | -61.24642 | 2505 ft | 164 kts | 206° |
| 2026-05-06 00:38 | 1.55648 | -61.25050 | 2508 ft | 164 kts | 204° |
| 2026-05-06 00:38 | 1.54588 | -61.25441 | 2504 ft | 162 kts | 199° |
| 2026-05-06 00:39 | 1.53889 | -61.25707 | 2505 ft | 162 kts | 198° |
| 2026-05-06 00:39 | 1.52479 | -61.26191 | 2506 ft | 162 kts | 197° |
| 2026-05-06 00:39 | 1.51413 | -61.26546 | 2510 ft | 161 kts | 197° |
| 2026-05-06 00:39 | 1.50334 | -61.26870 | 2509 ft | 161 kts | 194° |
| 2026-05-06 00:40 | 1.49243 | -61.27172 | 2466 ft | 166 kts | 193° |
| 2026-05-06 00:40 | 1.48492 | -61.27374 | 2382 ft | 171 kts | 193° |
| 2026-05-06 00:40 | 1.46949 | -61.27781 | 2231 ft | 173 kts | 193° |
| 2026-05-06 00:40 | 1.46176 | -61.27982 | 2170 ft | 173 kts | 193° |
| 2026-05-06 00:41 | 1.45004 | -61.28270 | 2075 ft | 173 kts | 192° |
| 2026-05-06 00:41 | 1.43828 | -61.28532 | 1973 ft | 173 kts | 191° |
| 2026-05-06 00:41 | 1.42654 | -61.28786 | 1870 ft | 172 kts | 191° |
| 2026-05-06 00:41 | 1.41479 | -61.29034 | 1774 ft | 172 kts | 191° |
| 2026-05-06 00:42 | 1.40307 | -61.29280 | 1681 ft | 172 kts | 191° |
| 2026-05-06 00:42 | 1.39152 | -61.29519 | 1584 ft | 171 kts | 192° |
| 2026-05-06 00:42 | 1.37983 | -61.29751 | 1437 ft | 171 kts | 192° |
| 2026-05-06 00:42 | 1.36813 | -61.29978 | 1335 ft | 170 kts | 191° |
| 2026-05-06 00:43 | 1.35646 | -61.30203 | 1246 ft | 170 kts | 191° |
| 2026-05-06 00:43 | 1.34483 | -61.30426 | 1155 ft | 170 kts | 191° |
| 2026-05-06 00:43 | 1.33334 | -61.30647 | 1071 ft | 170 kts | 191° |
| 2026-05-06 00:43 | 1.32175 | -61.30870 | 991 ft | 169 kts | 191° |
| 2026-05-06 00:44 | 1.31021 | -61.31090 | 968 ft | 165 kts | 191° |
| 2026-05-06 00:44 | 1.29918 | -61.31302 | 1053 ft | 161 kts | 191° |
| 2026-05-06 00:44 | 1.28817 | -61.31513 | 1076 ft | 161 kts | 191° |
| 2026-05-06 00:44 | 1.27712 | -61.31724 | 1109 ft | 161 kts | 191° |
| 2026-05-06 00:45 | 1.26625 | -61.31933 | 1148 ft | 161 kts | 191° |
| 2026-05-06 00:45 | 1.25526 | -61.32144 | 1182 ft | 161 kts | 191° |
| 2026-05-06 00:45 | 1.24424 | -61.32355 | 1216 ft | 161 kts | 191° |
| 2026-05-06 00:45 | 1.23324 | -61.32566 | 1252 ft | 161 kts | 191° |
| 2026-05-06 00:46 | 1.22228 | -61.32779 | 1188 ft | 161 kts | 191° |
| 2026-05-06 00:46 | 1.21124 | -61.32992 | 1229 ft | 161 kts | 191° |
| 2026-05-06 00:46 | 1.20023 | -61.33204 | 1288 ft | 161 kts | 191° |
| 2026-05-06 00:46 | 1.18937 | -61.33413 | 1328 ft | 161 kts | 191° |
| 2026-05-06 00:47 | 1.17818 | -61.33628 | 1365 ft | 161 kts | 191° |
| 2026-05-06 00:47 | 1.16729 | -61.33837 | 1406 ft | 161 kts | 191° |
| 2026-05-06 00:47 | 1.15624 | -61.34048 | 1451 ft | 162 kts | 191° |
| 2026-05-06 00:47 | 1.14516 | -61.34260 | 1487 ft | 162 kts | 191° |
| 2026-05-06 00:48 | 1.13407 | -61.34472 | 1524 ft | 162 kts | 191° |
| 2026-05-06 00:48 | 1.12312 | -61.34682 | 1556 ft | 162 kts | 191° |
| 2026-05-06 00:48 | 1.11207 | -61.34893 | 1579 ft | 163 kts | 191° |
| 2026-05-06 00:48 | 1.10069 | -61.35111 | 1447 ft | 166 kts | 192° |
| 2026-05-06 00:49 | 1.08925 | -61.35341 | 1171 ft | 165 kts | 191° |
| 2026-05-06 00:49 | 1.07818 | -61.35557 | 1253 ft | 161 kts | 191° |
| 2026-05-06 00:49 | 1.06711 | -61.35768 | 1287 ft | 162 kts | 191° |
| 2026-05-06 00:49 | 1.05622 | -61.35976 | 1328 ft | 160 kts | 192° |
| 2026-05-06 00:50 | 1.04526 | -61.36190 | 1257 ft | 161 kts | 191° |
| 2026-05-06 00:50 | 1.03418 | -61.36403 | 1314 ft | 161 kts | 191° |
| 2026-05-06 00:50 | 1.02317 | -61.36629 | 1346 ft | 161 kts | 194° |
| 2026-05-06 00:50 | 1.01229 | -61.36919 | 1386 ft | 161 kts | 196° |
| 2026-05-06 00:51 | 1.00161 | -61.37219 | 1422 ft | 162 kts | 196° |
| 2026-05-06 00:51 | 0.99078 | -61.37527 | 1456 ft | 162 kts | 196° |
| 2026-05-06 00:51 | 0.97991 | -61.37835 | 1496 ft | 162 kts | 196° |
| 2026-05-06 00:51 | 0.96906 | -61.38142 | 1534 ft | 162 kts | 196° |
| 2026-05-06 00:52 | 0.95822 | -61.38449 | 1565 ft | 162 kts | 196° |
| 2026-05-06 00:52 | 0.94736 | -61.38757 | 1598 ft | 162 kts | 196° |
| 2026-05-06 00:52 | 0.93667 | -61.39060 | 1625 ft | 162 kts | 196° |
| 2026-05-06 00:52 | 0.92586 | -61.39388 | 1656 ft | 162 kts | 198° |
| 2026-05-06 00:53 | 0.91523 | -61.39770 | 1691 ft | 162 kts | 200° |
| 2026-05-06 00:53 | 0.90459 | -61.40169 | 1724 ft | 163 kts | 200° |
| 2026-05-06 00:53 | 0.89398 | -61.40569 | 1764 ft | 163 kts | 200° |
| 2026-05-06 00:53 | 0.88338 | -61.40969 | 1807 ft | 162 kts | 200° |
| 2026-05-06 00:54 | 0.87329 | -61.41351 | 2107 ft | 149 kts | 200° |
| 2026-05-06 00:54 | 0.86378 | -61.41773 | 2267 ft | 153 kts | 204° |
| 2026-05-06 00:54 | 0.85439 | -61.42270 | 2417 ft | 155 kts | 214° |
| 2026-05-06 00:54 | 0.84465 | -61.42839 | 2400 ft | 165 kts | 210° |
| 2026-05-06 00:55 | 0.83511 | -61.43443 | 2473 ft | 161 kts | 211° |
| 2026-05-06 00:55 | 0.82563 | -61.44053 | 2491 ft | 162 kts | 211° |
| 2026-05-06 00:55 | 0.81611 | -61.44668 | 2502 ft | 162 kts | 211° |
| 2026-05-06 00:55 | 0.80554 | -61.45023 | 2503 ft | 160 kts | 184° |
| 2026-05-06 00:56 | 0.79460 | -61.44930 | 2509 ft | 157 kts | 174° |
| 2026-05-06 00:56 | 0.78378 | -61.45067 | 2509 ft | 160 kts | 192° |
| 2026-05-06 00:56 | 0.77306 | -61.45385 | 2508 ft | 161 kts | 196° |
| 2026-05-06 00:56 | 0.76253 | -61.45775 | 2509 ft | 161 kts | 201° |
| 2026-05-06 00:57 | 0.75230 | -61.46244 | 2509 ft | 162 kts | 205° |
| 2026-05-06 00:57 | 0.74251 | -61.46809 | 2505 ft | 162 kts | 210° |
| 2026-05-06 00:57 | 0.73286 | -61.47406 | 2507 ft | 164 kts | 210° |
| 2026-05-06 00:57 | 0.72306 | -61.48011 | 2439 ft | 170 kts | 210° |
| 2026-05-06 00:58 | 0.71284 | -61.48635 | 2350 ft | 172 kts | 210° |
| 2026-05-06 00:58 | 0.70289 | -61.49294 | 2327 ft | 172 kts | 215° |
| 2026-05-06 00:58 | 0.69340 | -61.50020 | 2282 ft | 172 kts | 217° |
| 2026-05-06 00:58 | 0.68425 | -61.50786 | 2246 ft | 172 kts | 221° |
| 2026-05-06 00:59 | 0.67541 | -61.51597 | 2203 ft | 172 kts | 222° |
| 2026-05-06 00:59 | 0.66666 | -61.52410 | 2151 ft | 172 kts | 222° |
| 2026-05-06 00:59 | 0.65801 | -61.53215 | 2109 ft | 171 kts | 222° |
| 2026-05-06 00:59 | 0.64927 | -61.54024 | 2103 ft | 170 kts | 222° |
| 2026-05-06 01:00 | 0.64084 | -61.54805 | 2238 ft | 164 kts | 221° |
| 2026-05-06 01:00 | 0.63248 | -61.55590 | 2277 ft | 165 kts | 222° |
| 2026-05-06 01:00 | 0.62410 | -61.56377 | 2338 ft | 165 kts | 222° |
| 2026-05-06 01:00 | 0.61575 | -61.57163 | 2396 ft | 165 kts | 222° |
| 2026-05-06 01:01 | 0.60741 | -61.57951 | 2457 ft | 165 kts | 222° |
| 2026-05-06 01:01 | 0.59919 | -61.58731 | 2488 ft | 165 kts | 222° |
| 2026-05-06 01:01 | 0.59088 | -61.59522 | 2494 ft | 165 kts | 222° |
| 2026-05-06 01:01 | 0.58255 | -61.60318 | 2497 ft | 165 kts | 222° |
| 2026-05-06 01:02 | 0.57423 | -61.61114 | 2499 ft | 165 kts | 222° |
| 2026-05-06 01:02 | 0.56596 | -61.61909 | 2498 ft | 165 kts | 222° |
| 2026-05-06 01:02 | 0.55767 | -61.62708 | 2502 ft | 165 kts | 223° |
| 2026-05-06 01:02 | 0.54942 | -61.63506 | 2504 ft | 165 kts | 223° |
| 2026-05-06 01:03 | 0.54118 | -61.64305 | 2504 ft | 165 kts | 223° |
| 2026-05-06 01:03 | 0.53296 | -61.65101 | 2498 ft | 165 kts | 223° |
| 2026-05-06 01:03 | 0.52472 | -61.65897 | 2497 ft | 164 kts | 223° |
| 2026-05-06 01:03 | 0.51657 | -61.66681 | 2498 ft | 164 kts | 223° |
| 2026-05-06 01:04 | 0.50826 | -61.67475 | 2498 ft | 165 kts | 222° |
| 2026-05-06 01:04 | 0.49999 | -61.68264 | 2505 ft | 164 kts | 223° |
| 2026-05-06 01:04 | 0.49182 | -61.69053 | 2506 ft | 164 kts | 223° |
| 2026-05-06 01:04 | 0.48362 | -61.69846 | 2501 ft | 165 kts | 223° |
| 2026-05-06 01:05 | 0.47514 | -61.70615 | 2506 ft | 164 kts | 218° |
| 2026-05-06 01:05 | 0.46604 | -61.71307 | 2500 ft | 164 kts | 215° |
| 2026-05-06 01:05 | 0.45678 | -61.71973 | 2497 ft | 164 kts | 212° |
| 2026-05-06 01:05 | 0.44678 | -61.72514 | 2498 ft | 163 kts | 204° |
| 2026-05-06 01:06 | 0.43639 | -61.72973 | 2497 ft | 163 kts | 201° |
| 2026-05-06 01:06 | 0.42570 | -61.73354 | 2503 ft | 163 kts | 195° |
| 2026-05-06 01:06 | 0.41498 | -61.73657 | 2510 ft | 162 kts | 193° |
| 2026-05-06 01:06 | 0.40402 | -61.73952 | 2515 ft | 162 kts | 193° |
| 2026-05-06 01:07 | 0.39307 | -61.74222 | 2516 ft | 162 kts | 191° |
| 2026-05-06 01:07 | 0.38206 | -61.74461 | 2517 ft | 162 kts | 190° |
| 2026-05-06 01:07 | 0.37102 | -61.74696 | 2519 ft | 162 kts | 190° |
| 2026-05-06 01:07 | 0.35999 | -61.74929 | 2519 ft | 162 kts | 190° |
| 2026-05-06 01:08 | 0.34894 | -61.75159 | 2511 ft | 162 kts | 189° |
| 2026-05-06 01:08 | 0.33784 | -61.75360 | 2522 ft | 162 kts | 189° |
| 2026-05-06 01:08 | 0.32677 | -61.75554 | 2519 ft | 161 kts | 188° |
| 2026-05-06 01:08 | 0.31570 | -61.75746 | 2518 ft | 161 kts | 188° |
| 2026-05-06 01:09 | 0.30475 | -61.75937 | 2514 ft | 161 kts | 189° |
| 2026-05-06 01:09 | 0.29372 | -61.76133 | 2520 ft | 161 kts | 189° |
| 2026-05-06 01:09 | 0.28269 | -61.76329 | 2519 ft | 161 kts | 188° |
| 2026-05-06 01:09 | 0.27159 | -61.76520 | 2518 ft | 162 kts | 188° |
| 2026-05-06 01:10 | 0.26048 | -61.76681 | 2522 ft | 161 kts | 186° |
| 2026-05-06 01:10 | 0.24932 | -61.76799 | 2517 ft | 161 kts | 185° |
| 2026-05-06 01:10 | 0.23821 | -61.76911 | 2519 ft | 161 kts | 185° |
| 2026-05-06 01:10 | 0.22703 | -61.77022 | 2521 ft | 161 kts | 185° |
| 2026-05-06 01:11 | 0.21585 | -61.77133 | 2516 ft | 161 kts | 185° |
| 2026-05-06 01:11 | 0.20468 | -61.77242 | 2519 ft | 161 kts | 185° |
| 2026-05-06 01:11 | 0.19354 | -61.77354 | 2517 ft | 161 kts | 185° |
| 2026-05-06 01:11 | 0.18241 | -61.77466 | 2520 ft | 160 kts | 185° |
| 2026-05-06 01:12 | 0.17141 | -61.77579 | 2517 ft | 161 kts | 185° |
| 2026-05-06 01:12 | 0.16030 | -61.77688 | 2520 ft | 161 kts | 185° |
| 2026-05-06 01:12 | 0.14913 | -61.77797 | 2514 ft | 161 kts | 185° |
| 2026-05-06 01:12 | 0.13797 | -61.77906 | 2518 ft | 161 kts | 185° |
| 2026-05-06 01:13 | 0.12680 | -61.78015 | 2518 ft | 161 kts | 185° |
| 2026-05-06 01:13 | 0.11562 | -61.78123 | 2519 ft | 161 kts | 184° |
| 2026-05-06 01:13 | 0.10449 | -61.78230 | 2519 ft | 161 kts | 185° |
| 2026-05-06 01:13 | 0.09332 | -61.78338 | 2519 ft | 161 kts | 185° |
| 2026-05-06 01:14 | 0.07115 | -61.78552 | 2519 ft | 161 kts | 185° |
| 2026-05-06 01:14 | 0.06000 | -61.78660 | 2519 ft | 161 kts | 184° |
| 2026-05-06 01:14 | 0.04887 | -61.78797 | 2520 ft | 161 kts | 187° |
| 2026-05-06 01:15 | 0.03778 | -61.78977 | 2520 ft | 161 kts | 188° |
| 2026-05-06 01:15 | 0.02670 | -61.79163 | 2515 ft | 161 kts | 188° |
| 2026-05-06 01:15 | 0.01563 | -61.79350 | 2519 ft | 161 kts | 188° |
| 2026-05-06 01:15 | 0.00455 | -61.79537 | 2520 ft | 161 kts | 188° |
| 2026-05-06 01:16 | -0.00653 | -61.79724 | 2520 ft | 161 kts | 188° |
| 2026-05-06 01:16 | -0.01760 | -61.79911 | 2519 ft | 161 kts | 188° |
| 2026-05-06 01:16 | -0.02865 | -61.80096 | 2520 ft | 161 kts | 188° |
| 2026-05-06 01:16 | -0.03972 | -61.80280 | 2521 ft | 161 kts | 188° |
| 2026-05-06 01:17 | -0.05077 | -61.80466 | 2515 ft | 160 kts | 188° |
| 2026-05-06 01:17 | -0.06171 | -61.80652 | 2519 ft | 161 kts | 188° |
| 2026-05-06 01:17 | -0.07275 | -61.80838 | 2519 ft | 161 kts | 188° |
| 2026-05-06 01:17 | -0.08381 | -61.81024 | 2517 ft | 161 kts | 188° |
| 2026-05-06 01:18 | -0.09490 | -61.81211 | 2519 ft | 161 kts | 188° |
| 2026-05-06 01:18 | -0.10595 | -61.81398 | 2519 ft | 161 kts | 188° |
| 2026-05-06 01:18 | -0.11702 | -61.81585 | 2514 ft | 161 kts | 188° |
| 2026-05-06 01:18 | -0.12808 | -61.81773 | 2514 ft | 161 kts | 188° |
| 2026-05-06 01:19 | -0.13917 | -61.81962 | 2519 ft | 161 kts | 188° |
| 2026-05-06 01:19 | -0.15010 | -61.82147 | 2514 ft | 161 kts | 188° |
| 2026-05-06 01:19 | -0.16123 | -61.82336 | 2520 ft | 161 kts | 188° |
| 2026-05-06 01:19 | -0.17229 | -61.82523 | 2519 ft | 162 kts | 188° |
| 2026-05-06 01:20 | -0.18340 | -61.82712 | 2518 ft | 162 kts | 188° |
| 2026-05-06 01:20 | -0.19448 | -61.82901 | 2521 ft | 162 kts | 188° |
| 2026-05-06 01:20 | -0.20559 | -61.83090 | 2519 ft | 162 kts | 188° |
| 2026-05-06 01:20 | -0.21652 | -61.83276 | 2520 ft | 161 kts | 188° |
| 2026-05-06 01:21 | -0.22759 | -61.83464 | 2515 ft | 161 kts | 188° |
| 2026-05-06 01:21 | -0.23864 | -61.83651 | 2520 ft | 161 kts | 188° |
| 2026-05-06 01:21 | -0.24971 | -61.83838 | 2519 ft | 161 kts | 188° |
| 2026-05-06 01:21 | -0.26079 | -61.84025 | 2520 ft | 161 kts | 188° |
| 2026-05-06 01:22 | -0.27186 | -61.84213 | 2519 ft | 161 kts | 188° |
| 2026-05-06 01:22 | -0.28294 | -61.84401 | 2519 ft | 162 kts | 188° |
| 2026-05-06 01:22 | -0.29405 | -61.84591 | 2520 ft | 161 kts | 188° |
| 2026-05-06 01:22 | -0.30508 | -61.84778 | 2514 ft | 161 kts | 188° |
| 2026-05-06 01:23 | -0.31615 | -61.84964 | 2521 ft | 160 kts | 188° |
| 2026-05-06 01:23 | -0.32723 | -61.85149 | 2517 ft | 161 kts | 188° |
| 2026-05-06 01:23 | -0.33828 | -61.85337 | 2515 ft | 161 kts | 188° |
| 2026-05-06 01:23 | -0.34936 | -61.85528 | 2513 ft | 162 kts | 189° |
| 2026-05-06 01:24 | -0.36080 | -61.85721 | 2408 ft | 170 kts | 189° |
| 2026-05-06 01:24 | -0.37243 | -61.85914 | 2307 ft | 171 kts | 189° |
| 2026-05-06 01:24 | -0.38421 | -61.86105 | 2216 ft | 172 kts | 189° |
| 2026-05-06 01:24 | -0.39606 | -61.86293 | 2136 ft | 172 kts | 189° |
| 2026-05-06 01:25 | -0.40788 | -61.86469 | 2046 ft | 172 kts | 186° |
| 2026-05-06 01:25 | -0.41978 | -61.86448 | 1937 ft | 170 kts | 174° |
| 2026-05-06 01:25 | -0.43147 | -61.86287 | 1783 ft | 170 kts | 172° |
| 2026-05-06 01:25 | -0.44312 | -61.86100 | 1609 ft | 169 kts | 171° |
| 2026-05-06 01:26 | -0.45468 | -61.85905 | 1533 ft | 168 kts | 171° |
| 2026-05-06 01:26 | -0.46619 | -61.85703 | 1437 ft | 167 kts | 171° |
| 2026-05-06 01:26 | -0.47732 | -61.85507 | 1497 ft | 153 kts | 172° |
| 2026-05-06 01:26 | -0.48762 | -61.85330 | 1477 ft | 153 kts | 171° |
| 2026-05-06 01:27 | -0.49796 | -61.85139 | 1492 ft | 152 kts | 168° |
| 2026-05-06 01:27 | -0.50760 | -61.84700 | 1498 ft | 151 kts | 151° |
| 2026-05-06 01:27 | -0.51659 | -61.84157 | 1498 ft | 151 kts | 149° |
| 2026-05-06 01:27 | -0.52552 | -61.83598 | 1498 ft | 151 kts | 149° |
| 2026-05-06 01:28 | -0.53140 | -61.83229 | 1498 ft | 151 kts | 149° |
| 2026-05-06 01:28 | -0.54027 | -61.82670 | 1499 ft | 151 kts | 149° |
| 2026-05-06 01:28 | -0.55235 | -61.81990 | 1498 ft | 152 kts | 161° |
| 2026-05-06 01:28 | -0.55920 | -61.81800 | 1500 ft | 151 kts | 167° |
| 2026-05-06 01:29 | -0.57282 | -61.81519 | 1498 ft | 151 kts | 169° |
| 2026-05-06 01:29 | -0.57982 | -61.81397 | 1499 ft | 151 kts | 174° |
| 2026-05-06 01:29 | -0.59030 | -61.81457 | 1498 ft | 151 kts | 188° |
| 2026-05-06 01:29 | -0.60043 | -61.81691 | 1499 ft | 151 kts | 196° |
| 2026-05-06 01:30 | -0.61059 | -61.81980 | 1499 ft | 152 kts | 197° |
| 2026-05-06 01:30 | -0.62072 | -61.82274 | 1499 ft | 151 kts | 197° |
| 2026-05-06 01:30 | -0.63085 | -61.82571 | 1498 ft | 152 kts | 197° |
| 2026-05-06 01:30 | -0.64088 | -61.82901 | 1499 ft | 152 kts | 201° |
| 2026-05-06 01:31 | -0.65076 | -61.83279 | 1499 ft | 152 kts | 202° |
| 2026-05-06 01:31 | -0.66061 | -61.83662 | 1499 ft | 152 kts | 202° |
| 2026-05-06 01:31 | -0.67047 | -61.84048 | 1499 ft | 152 kts | 202° |
| 2026-05-06 01:31 | -0.68020 | -61.84428 | 1498 ft | 152 kts | 202° |
| 2026-05-06 01:32 | -0.69007 | -61.84814 | 1498 ft | 152 kts | 202° |
| 2026-05-06 01:32 | -0.70014 | -61.85139 | 1499 ft | 152 kts | 196° |
| 2026-05-06 01:32 | -0.71034 | -61.85409 | 1498 ft | 152 kts | 195° |
| 2026-05-06 01:32 | -0.72059 | -61.85671 | 1498 ft | 152 kts | 195° |
| 2026-05-06 01:33 | -0.73084 | -61.85931 | 1498 ft | 152 kts | 194° |
| 2026-05-06 01:33 | -0.74103 | -61.86151 | 1498 ft | 152 kts | 192° |
| 2026-05-06 01:33 | -0.75143 | -61.86349 | 1499 ft | 152 kts | 190° |
| 2026-05-06 01:33 | -0.76186 | -61.86509 | 1499 ft | 152 kts | 189° |
| 2026-05-06 01:34 | -0.77231 | -61.86663 | 1499 ft | 152 kts | 189° |
| 2026-05-06 01:34 | -0.78276 | -61.86816 | 1498 ft | 152 kts | 189° |
| 2026-05-06 01:34 | -0.79320 | -61.86970 | 1498 ft | 152 kts | 189° |
| 2026-05-06 01:34 | -0.80363 | -61.87121 | 1498 ft | 152 kts | 188° |
| 2026-05-06 01:35 | -0.81361 | -61.87254 | 1498 ft | 151 kts | 188° |
| 2026-05-06 01:35 | -0.82328 | -61.87379 | 1498 ft | 152 kts | 188° |
| 2026-05-06 01:35 | -0.83262 | -61.87499 | 1498 ft | 152 kts | 188° |
| 2026-05-06 01:35 | -0.84176 | -61.87616 | 1498 ft | 152 kts | 188° |
| 2026-05-06 01:36 | -0.85240 | -61.87754 | 1498 ft | 152 kts | 188° |
| 2026-05-06 01:36 | -0.86287 | -61.87889 | 1499 ft | 152 kts | 188° |
| 2026-05-06 01:36 | -0.87333 | -61.88018 | 1498 ft | 152 kts | 186° |
| 2026-05-06 01:36 | -0.88386 | -61.88110 | 1499 ft | 152 kts | 185° |
| 2026-05-06 01:37 | -0.89438 | -61.88185 | 1498 ft | 152 kts | 184° |
| 2026-05-06 01:37 | -0.90479 | -61.88234 | 1498 ft | 152 kts | 182° |
| 2026-05-06 01:37 | -0.91548 | -61.88253 | 1498 ft | 152 kts | 181° |
| 2026-05-06 01:37 | -0.92590 | -61.88262 | 1498 ft | 152 kts | 181° |
| 2026-05-06 01:38 | -0.93646 | -61.88271 | 1498 ft | 152 kts | 181° |
| 2026-05-06 01:38 | -0.94700 | -61.88279 | 1499 ft | 152 kts | 181° |
| 2026-05-06 01:38 | -0.95756 | -61.88286 | 1499 ft | 152 kts | 181° |
| 2026-05-06 01:38 | -0.96810 | -61.88295 | 1499 ft | 152 kts | 181° |
| 2026-05-06 01:39 | -0.97867 | -61.88303 | 1498 ft | 152 kts | 181° |
| 2026-05-06 01:39 | -0.98923 | -61.88304 | 1498 ft | 152 kts | 179° |
| 2026-05-06 01:39 | -0.99978 | -61.88238 | 1498 ft | 152 kts | 175° |
| 2026-05-06 01:39 | -1.01028 | -61.88128 | 1498 ft | 152 kts | 174° |
| 2026-05-06 01:40 | -1.02075 | -61.87991 | 1498 ft | 152 kts | 171° |
| 2026-05-06 01:40 | -1.03107 | -61.87755 | 1498 ft | 152 kts | 165° |
| 2026-05-06 01:40 | -1.04110 | -61.87417 | 1499 ft | 152 kts | 160° |
| 2026-05-06 01:40 | -1.05104 | -61.87045 | 1498 ft | 153 kts | 160° |
| 2026-05-06 01:41 | -1.06106 | -61.86666 | 1498 ft | 154 kts | 160° |
| 2026-05-06 01:41 | -1.07105 | -61.86289 | 1500 ft | 153 kts | 160° |
| 2026-05-06 01:41 | -1.08088 | -61.85919 | 1498 ft | 152 kts | 160° |
| 2026-05-06 01:41 | -1.09079 | -61.85544 | 1499 ft | 153 kts | 160° |
| 2026-05-06 01:42 | -1.10073 | -61.85164 | 1499 ft | 153 kts | 159° |
| 2026-05-06 01:42 | -1.11121 | -61.85014 | 1499 ft | 154 kts | 181° |
| 2026-05-06 01:42 | -1.12179 | -61.85077 | 1500 ft | 152 kts | 185° |
| 2026-05-06 01:42 | -1.13234 | -61.85171 | 1499 ft | 151 kts | 186° |
| 2026-05-06 01:43 | -1.14286 | -61.85270 | 1499 ft | 152 kts | 186° |
| 2026-05-06 01:43 | -1.15339 | -61.85369 | 1499 ft | 152 kts | 186° |
| 2026-05-06 01:43 | -1.16395 | -61.85466 | 1497 ft | 152 kts | 185° |
| 2026-05-06 01:43 | -1.17444 | -61.85535 | 1498 ft | 153 kts | 184° |
| 2026-05-06 01:44 | -1.18506 | -61.85567 | 1498 ft | 153 kts | 181° |
| 2026-05-06 01:44 | -1.19570 | -61.85572 | 1497 ft | 153 kts | 180° |
| 2026-05-06 01:44 | -1.20636 | -61.85560 | 1497 ft | 153 kts | 179° |
| 2026-05-06 01:44 | -1.21703 | -61.85548 | 1499 ft | 153 kts | 180° |
| 2026-05-06 01:45 | -1.22766 | -61.85519 | 1507 ft | 152 kts | 178° |
| 2026-05-06 01:45 | -1.23818 | -61.85468 | 1504 ft | 151 kts | 178° |
| 2026-05-06 01:45 | -1.24864 | -61.85404 | 1496 ft | 151 kts | 177° |
| 2026-05-06 01:45 | -1.25914 | -61.85318 | 1485 ft | 152 kts | 175° |
| 2026-05-06 01:46 | -1.26968 | -61.85216 | 1497 ft | 152 kts | 175° |
| 2026-05-06 01:46 | -1.28010 | -61.85113 | 1498 ft | 152 kts | 175° |
| 2026-05-06 01:46 | -1.29066 | -61.85007 | 1499 ft | 152 kts | 175° |
| 2026-05-06 01:46 | -1.30126 | -61.84902 | 1498 ft | 152 kts | 174° |
| 2026-05-06 01:47 | -1.31179 | -61.84774 | 1499 ft | 152 kts | 173° |
| 2026-05-06 01:47 | -1.32224 | -61.84603 | 1498 ft | 152 kts | 169° |
| 2026-05-06 01:47 | -1.33243 | -61.84313 | 1498 ft | 153 kts | 160° |
| 2026-05-06 01:47 | -1.34200 | -61.83857 | 1499 ft | 152 kts | 152° |
| 2026-05-06 01:48 | -1.35105 | -61.83309 | 1499 ft | 152 kts | 146° |
| 2026-05-06 01:48 | -1.35928 | -61.82647 | 1498 ft | 152 kts | 138° |
| 2026-05-06 01:48 | -1.36658 | -61.81879 | 1499 ft | 152 kts | 133° |
| 2026-05-06 01:48 | -1.37349 | -61.81082 | 1498 ft | 152 kts | 130° |
| 2026-05-06 01:49 | -1.37982 | -61.80235 | 1498 ft | 152 kts | 125° |
| 2026-05-06 01:49 | -1.38540 | -61.79340 | 1499 ft | 152 kts | 121° |
| 2026-05-06 01:49 | -1.39065 | -61.78442 | 1499 ft | 151 kts | 121° |
| 2026-05-06 01:49 | -1.39592 | -61.77532 | 1481 ft | 150 kts | 122° |
| 2026-05-06 01:50 | -1.40140 | -61.76668 | 1254 ft | 143 kts | 125° |
| 2026-05-06 01:50 | -1.40667 | -61.75878 | 1220 ft | 132 kts | 125° |
| 2026-05-06 01:50 | -1.41199 | -61.75129 | 1204 ft | 133 kts | 127° |
| 2026-05-06 01:50 | -1.41766 | -61.74403 | 1211 ft | 132 kts | 130° |
| 2026-05-06 01:51 | -1.42263 | -61.73733 | 1176 ft | 127 kts | 124° |
| 2026-05-06 01:51 | -1.42630 | -61.72986 | 1323 ft | 111 kts | 112° |
| 2026-05-06 01:51 | -1.42913 | -61.72304 | 1484 ft | 102 kts | 116° |
| 2026-05-06 01:51 | -1.43209 | -61.71664 | 1817 ft | 105 kts | 112° |
| 2026-05-06 01:52 | -1.43512 | -61.70922 | 1946 ft | 124 kts | 110° |
| 2026-05-06 01:52 | -1.43826 | -61.70073 | 1964 ft | 134 kts | 111° |
| 2026-05-06 01:52 | -1.44200 | -61.69203 | 2025 ft | 136 kts | 116° |
| 2026-05-06 01:52 | -1.44546 | -61.68320 | 1901 ft | 142 kts | 106° |
| 2026-05-06 01:53 | -1.44763 | -61.67366 | 1760 ft | 139 kts | 104° |
| 2026-05-06 01:53 | -1.45015 | -61.66431 | 1201 ft | 133 kts | 107° |
| 2026-05-06 01:53 | -1.45213 | -61.65708 | 966 ft | 90 kts | 107° |
| 2026-05-06 01:53 | -1.45501 | -61.65165 | 727 ft | 92 kts | 124° |
| 2026-05-06 01:54 | -1.45787 | -61.64694 | 654 ft | 68 kts | 118° |
| 2026-05-06 01:54 | -1.45983 | -61.64280 | 467 ft | 61 kts | 110° |
| 2026-05-06 01:54 | -1.46124 | -61.63902 | 270 ft | 54 kts | 110° |
| 2026-05-06 01:54 | -1.46226 | -61.63641 | 191 ft | 25 kts | 112° |
| 2026-05-06 01:55 | -1.46281 | -61.63499 | 191 ft | 19 kts | 112° |
| 2026-05-06 01:55 | -1.46296 | -61.63436 | 192 ft | 5 kts | 60° |
| 2026-05-06 01:55 | -1.46267 | -61.63418 | 192 ft | 6 kts | 18° |
| 2026-05-06 01:55 | -1.46225 | -61.63398 | 189 ft | 9 kts | 64° |
| 2026-05-06 01:56 | -1.46220 | -61.63380 | 189 ft | 0 kts | 284° |
| 2026-05-06 02:33 | -1.46220 | -61.63398 | 200 ft | 2 kts | 247° |
| 2026-05-06 02:34 | -1.46232 | -61.63414 | 196 ft | 6 kts | 217° |
| 2026-05-06 02:34 | -1.46274 | -61.63432 | 197 ft | 4 kts | 197° |
| 2026-05-06 02:34 | -1.46301 | -61.63439 | 199 ft | 5 kts | 153° |
| 2026-05-06 02:34 | -1.46320 | -61.63364 | 222 ft | 34 kts | 118° |
| 2026-05-06 02:35 | -1.46461 | -61.63052 | 404 ft | 57 kts | 126° |
| 2026-05-06 02:35 | -1.46661 | -61.62611 | 538 ft | 82 kts | 101° |
| 2026-05-06 02:35 | -1.46575 | -61.62000 | 728 ft | 97 kts | 70° |
| 2026-05-06 02:35 | -1.46138 | -61.61428 | 928 ft | 118 kts | 45° |
| 2026-05-06 02:36 | -1.45719 | -61.60640 | 982 ft | 138 kts | 76° |
| 2026-05-06 02:36 | -1.45732 | -61.59655 | 967 ft | 145 kts | 105° |
| 2026-05-06 02:36 | -1.46227 | -61.58795 | 943 ft | 145 kts | 134° |
| 2026-05-06 02:36 | -1.47063 | -61.58237 | 953 ft | 145 kts | 153° |
| 2026-05-06 02:37 | -1.47988 | -61.57804 | 1074 ft | 147 kts | 155° |
| 2026-05-06 02:37 | -1.48948 | -61.57428 | 1263 ft | 149 kts | 163° |
| 2026-05-06 02:37 | -1.49945 | -61.57156 | 1441 ft | 148 kts | 166° |
| 2026-05-06 02:37 | -1.50945 | -61.56904 | 1503 ft | 148 kts | 166° |
| 2026-05-06 02:38 | -1.51933 | -61.56662 | 1523 ft | 148 kts | 167° |
| 2026-05-06 02:38 | -1.52937 | -61.56416 | 1535 ft | 148 kts | 166° |
| 2026-05-06 02:38 | -1.53917 | -61.56082 | 1541 ft | 148 kts | 158° |
| 2026-05-06 02:38 | -1.54839 | -61.55622 | 1538 ft | 148 kts | 153° |
| 2026-05-06 02:39 | -1.55745 | -61.55131 | 1543 ft | 148 kts | 152° |
| 2026-05-06 02:39 | -1.56676 | -61.54684 | 1545 ft | 148 kts | 158° |
| 2026-05-06 02:39 | -1.57656 | -61.54360 | 1545 ft | 149 kts | 164° |
| 2026-05-06 02:39 | -1.58638 | -61.54078 | 1546 ft | 149 kts | 165° |
| 2026-05-06 02:40 | -1.59668 | -61.53781 | 1515 ft | 159 kts | 164° |
| 2026-05-06 02:40 | -1.60714 | -61.53388 | 1529 ft | 160 kts | 155° |
| 2026-05-06 02:40 | -1.61700 | -61.52865 | 1553 ft | 160 kts | 151° |
| 2026-05-06 02:40 | -1.62641 | -61.52271 | 1555 ft | 159 kts | 144° |
| 2026-05-06 02:41 | -1.63524 | -61.51617 | 1554 ft | 160 kts | 142° |
| 2026-05-06 02:41 | -1.64408 | -61.50945 | 1557 ft | 159 kts | 142° |
| 2026-05-06 02:41 | -1.65291 | -61.50270 | 1556 ft | 159 kts | 142° |
| 2026-05-06 02:41 | -1.66141 | -61.49554 | 1555 ft | 160 kts | 139° |
| 2026-05-06 02:42 | -1.66975 | -61.48808 | 1556 ft | 160 kts | 139° |
| 2026-05-06 02:42 | -1.67794 | -61.48073 | 1558 ft | 160 kts | 138° |
| 2026-05-06 02:42 | -1.68623 | -61.47336 | 1553 ft | 160 kts | 138° |
| 2026-05-06 02:42 | -1.69454 | -61.46598 | 1556 ft | 159 kts | 139° |
| 2026-05-06 02:43 | -1.70286 | -61.45865 | 1554 ft | 159 kts | 139° |
| 2026-05-06 02:43 | -1.71159 | -61.45174 | 1553 ft | 160 kts | 143° |
| 2026-05-06 02:43 | -1.72052 | -61.44513 | 1555 ft | 160 kts | 144° |
| 2026-05-06 02:43 | -1.72979 | -61.43899 | 1554 ft | 160 kts | 148° |
| 2026-05-06 02:44 | -1.73943 | -61.43328 | 1556 ft | 160 kts | 150° |
| 2026-05-06 02:44 | -1.74913 | -61.42811 | 1556 ft | 160 kts | 152° |
| 2026-05-06 02:44 | -1.75904 | -61.42294 | 1556 ft | 160 kts | 152° |
| 2026-05-06 02:44 | -1.76888 | -61.41763 | 1556 ft | 160 kts | 150° |
| 2026-05-06 02:45 | -1.77859 | -61.41218 | 1556 ft | 160 kts | 150° |
| 2026-05-06 02:45 | -1.78826 | -61.40669 | 1555 ft | 160 kts | 149° |
| 2026-05-06 02:45 | -1.79775 | -61.40084 | 1556 ft | 160 kts | 148° |
| 2026-05-06 02:45 | -1.80716 | -61.39489 | 1555 ft | 160 kts | 147° |
| 2026-05-06 02:46 | -1.81642 | -61.38900 | 1555 ft | 160 kts | 147° |
| 2026-05-06 02:46 | -1.82579 | -61.38302 | 1554 ft | 160 kts | 147° |
| 2026-05-06 02:46 | -1.83516 | -61.37693 | 1556 ft | 160 kts | 147° |
| 2026-05-06 02:46 | -1.84452 | -61.37086 | 1556 ft | 159 kts | 147° |
| 2026-05-06 02:47 | -1.85390 | -61.36481 | 1554 ft | 161 kts | 147° |
| 2026-05-06 02:47 | -1.86325 | -61.35871 | 1556 ft | 160 kts | 147° |
| 2026-05-06 02:47 | -1.87260 | -61.35261 | 1556 ft | 160 kts | 147° |
| 2026-05-06 02:47 | -1.88195 | -61.34650 | 1557 ft | 160 kts | 147° |
| 2026-05-06 02:48 | -1.89130 | -61.34041 | 1556 ft | 160 kts | 147° |
| 2026-05-06 02:48 | -1.90065 | -61.33429 | 1555 ft | 161 kts | 147° |
| 2026-05-06 02:48 | -1.90999 | -61.32819 | 1556 ft | 160 kts | 147° |
| 2026-05-06 02:48 | -1.91923 | -61.32215 | 1555 ft | 161 kts | 147° |
| 2026-05-06 02:49 | -1.92858 | -61.31605 | 1556 ft | 160 kts | 147° |
| 2026-05-06 02:49 | -1.93794 | -61.31006 | 1554 ft | 160 kts | 147° |
| 2026-05-06 02:49 | -1.94732 | -61.30408 | 1556 ft | 160 kts | 147° |
| 2026-05-06 02:49 | -1.95667 | -61.29812 | 1556 ft | 160 kts | 147° |
| 2026-05-06 02:50 | -1.96606 | -61.29214 | 1555 ft | 159 kts | 147° |
| 2026-05-06 02:50 | -1.97541 | -61.28620 | 1553 ft | 160 kts | 147° |
| 2026-05-06 02:50 | -1.98480 | -61.28023 | 1557 ft | 160 kts | 147° |
| 2026-05-06 02:50 | -1.99419 | -61.27425 | 1555 ft | 160 kts | 147° |
| 2026-05-06 02:51 | -2.00354 | -61.26826 | 1555 ft | 160 kts | 147° |
| 2026-05-06 02:51 | -2.01293 | -61.26220 | 1558 ft | 160 kts | 147° |
| 2026-05-06 02:51 | -2.02217 | -61.25620 | 1556 ft | 161 kts | 147° |
| 2026-05-06 02:51 | -2.03155 | -61.25008 | 1556 ft | 160 kts | 147° |
| 2026-05-06 02:52 | -2.04091 | -61.24397 | 1555 ft | 161 kts | 147° |
| 2026-05-06 02:52 | -2.05028 | -61.23784 | 1555 ft | 161 kts | 147° |
| 2026-05-06 02:52 | -2.05965 | -61.23173 | 1556 ft | 160 kts | 147° |
| 2026-05-06 02:52 | -2.06903 | -61.22568 | 1559 ft | 160 kts | 147° |
| 2026-05-06 02:53 | -2.07831 | -61.21945 | 1563 ft | 160 kts | 146° |
| 2026-05-06 02:53 | -2.08749 | -61.21309 | 1562 ft | 161 kts | 145° |
| 2026-05-06 02:53 | -2.09655 | -61.20682 | 1563 ft | 160 kts | 145° |
| 2026-05-06 02:53 | -2.10569 | -61.20051 | 1564 ft | 160 kts | 144° |
| 2026-05-06 02:54 | -2.11475 | -61.19406 | 1564 ft | 160 kts | 144° |
| 2026-05-06 02:54 | -2.12381 | -61.18757 | 1564 ft | 160 kts | 144° |
| 2026-05-06 02:54 | -2.13286 | -61.18108 | 1565 ft | 160 kts | 144° |
| 2026-05-06 02:54 | -2.14189 | -61.17448 | 1566 ft | 160 kts | 143° |
| 2026-05-06 02:55 | -2.15075 | -61.16766 | 1567 ft | 160 kts | 142° |
| 2026-05-06 02:55 | -2.15954 | -61.16081 | 1566 ft | 160 kts | 142° |
| 2026-05-06 02:55 | -2.16822 | -61.15400 | 1564 ft | 160 kts | 142° |
| 2026-05-06 02:55 | -2.17699 | -61.14710 | 1563 ft | 160 kts | 142° |
| 2026-05-06 02:56 | -2.18575 | -61.14020 | 1563 ft | 160 kts | 142° |
| 2026-05-06 02:56 | -2.19451 | -61.13330 | 1564 ft | 160 kts | 142° |
| 2026-05-06 02:56 | -2.20329 | -61.12638 | 1565 ft | 160 kts | 142° |
| 2026-05-06 02:56 | -2.21205 | -61.11947 | 1565 ft | 160 kts | 142° |
| 2026-05-06 02:57 | -2.22082 | -61.11255 | 1566 ft | 160 kts | 142° |
| 2026-05-06 02:57 | -2.22962 | -61.10561 | 1565 ft | 161 kts | 142° |
| 2026-05-06 02:57 | -2.23839 | -61.09874 | 1565 ft | 160 kts | 142° |
| 2026-05-06 02:57 | -2.24719 | -61.09193 | 1564 ft | 160 kts | 142° |
| 2026-05-06 02:58 | -2.25600 | -61.08513 | 1566 ft | 160 kts | 142° |
| 2026-05-06 02:58 | -2.26476 | -61.07827 | 1565 ft | 160 kts | 142° |
| 2026-05-06 02:58 | -2.27355 | -61.07148 | 1566 ft | 159 kts | 142° |
| 2026-05-06 02:58 | -2.28237 | -61.06469 | 1566 ft | 160 kts | 142° |
| 2026-05-06 02:59 | -2.29108 | -61.05798 | 1564 ft | 160 kts | 142° |
| 2026-05-06 02:59 | -2.29991 | -61.05118 | 1564 ft | 160 kts | 142° |
| 2026-05-06 02:59 | -2.30873 | -61.04432 | 1567 ft | 160 kts | 142° |
| 2026-05-06 02:59 | -2.31757 | -61.03756 | 1564 ft | 160 kts | 142° |
| 2026-05-06 03:00 | -2.32639 | -61.03082 | 1564 ft | 159 kts | 142° |
| 2026-05-06 03:00 | -2.33524 | -61.02404 | 1563 ft | 160 kts | 142° |
| 2026-05-06 03:00 | -2.34404 | -61.01729 | 1564 ft | 160 kts | 142° |
| 2026-05-06 03:00 | -2.35286 | -61.01051 | 1564 ft | 160 kts | 142° |
| 2026-05-06 03:01 | -2.36169 | -61.00374 | 1564 ft | 160 kts | 142° |
| 2026-05-06 03:01 | -2.37036 | -60.99699 | 1565 ft | 160 kts | 142° |
| 2026-05-06 03:01 | -2.37930 | -60.99040 | 1564 ft | 160 kts | 144° |
| 2026-05-06 03:01 | -2.38842 | -60.98396 | 1565 ft | 161 kts | 145° |
| 2026-05-06 03:02 | -2.39755 | -60.97755 | 1565 ft | 160 kts | 145° |
| 2026-05-06 03:02 | -2.40670 | -60.97118 | 1564 ft | 160 kts | 145° |
| 2026-05-06 03:02 | -2.41585 | -60.96475 | 1567 ft | 161 kts | 145° |
| 2026-05-06 03:02 | -2.42496 | -60.95831 | 1565 ft | 160 kts | 145° |
| 2026-05-06 03:03 | -2.43408 | -60.95190 | 1566 ft | 160 kts | 145° |
| 2026-05-06 03:03 | -2.44319 | -60.94549 | 1564 ft | 161 kts | 145° |
| 2026-05-06 03:03 | -2.45232 | -60.93908 | 1567 ft | 160 kts | 145° |
| 2026-05-06 03:03 | -2.46145 | -60.93273 | 1564 ft | 160 kts | 145° |
| 2026-05-06 03:04 | -2.47056 | -60.92632 | 1564 ft | 160 kts | 144° |
| 2026-05-06 03:04 | -2.47968 | -60.91989 | 1564 ft | 160 kts | 145° |
| 2026-05-06 03:04 | -2.48571 | -60.91562 | 1564 ft | 161 kts | 145° |
| 2026-05-06 03:04 | -2.49791 | -60.90705 | 1565 ft | 160 kts | 145° |
| 2026-05-06 03:05 | -2.50395 | -60.90286 | 1565 ft | 160 kts | 145° |
| 2026-05-06 03:05 | -2.51309 | -60.89646 | 1563 ft | 161 kts | 144° |
| 2026-05-06 03:05 | -2.52221 | -60.89006 | 1564 ft | 160 kts | 145° |
| 2026-05-06 03:05 | -2.53136 | -60.88364 | 1568 ft | 160 kts | 145° |
| 2026-05-06 03:06 | -2.54051 | -60.87723 | 1572 ft | 160 kts | 144° |
| 2026-05-06 03:06 | -2.54966 | -60.87087 | 1572 ft | 160 kts | 145° |
| 2026-05-06 03:06 | -2.55868 | -60.86453 | 1573 ft | 161 kts | 145° |
| 2026-05-06 03:06 | -2.56780 | -60.85813 | 1574 ft | 160 kts | 145° |
| 2026-05-06 03:07 | -2.57692 | -60.85169 | 1574 ft | 160 kts | 143° |
| 2026-05-06 03:07 | -2.58586 | -60.84509 | 1574 ft | 160 kts | 143° |
| 2026-05-06 03:07 | -2.59478 | -60.83843 | 1574 ft | 160 kts | 143° |
| 2026-05-06 03:07 | -2.60360 | -60.83168 | 1574 ft | 160 kts | 141° |
| 2026-05-06 03:08 | -2.61229 | -60.82475 | 1574 ft | 160 kts | 141° |
| 2026-05-06 03:08 | -2.62082 | -60.81763 | 1575 ft | 159 kts | 139° |
| 2026-05-06 03:08 | -2.62913 | -60.81029 | 1574 ft | 159 kts | 137° |
| 2026-05-06 03:08 | -2.63719 | -60.80268 | 1573 ft | 159 kts | 135° |
| 2026-05-06 03:09 | -2.64499 | -60.79499 | 1574 ft | 159 kts | 135° |
| 2026-05-06 03:09 | -2.65286 | -60.78717 | 1574 ft | 160 kts | 135° |
| 2026-05-06 03:09 | -2.66072 | -60.77934 | 1574 ft | 159 kts | 135° |
| 2026-05-06 03:09 | -2.66859 | -60.77152 | 1587 ft | 156 kts | 136° |
| 2026-05-06 03:10 | -2.67598 | -60.76427 | 1573 ft | 150 kts | 135° |
| 2026-05-06 03:10 | -2.68344 | -60.75690 | 1575 ft | 150 kts | 135° |
| 2026-05-06 03:10 | -2.69088 | -60.74952 | 1575 ft | 150 kts | 135° |
| 2026-05-06 03:10 | -2.69757 | -60.74147 | 1574 ft | 150 kts | 127° |
| 2026-05-06 03:11 | -2.70355 | -60.73288 | 1575 ft | 150 kts | 124° |
| 2026-05-06 03:11 | -2.70938 | -60.72418 | 1575 ft | 150 kts | 124° |
| 2026-05-06 03:11 | -2.71519 | -60.71547 | 1575 ft | 150 kts | 124° |
| 2026-05-06 03:11 | -2.72101 | -60.70683 | 1574 ft | 149 kts | 124° |
| 2026-05-06 03:12 | -2.72683 | -60.69822 | 1574 ft | 150 kts | 124° |
| 2026-05-06 03:12 | -2.73254 | -60.68952 | 1573 ft | 149 kts | 123° |
| 2026-05-06 03:12 | -2.73818 | -60.68077 | 1574 ft | 151 kts | 123° |
| 2026-05-06 03:12 | -2.74383 | -60.67193 | 1599 ft | 150 kts | 123° |
| 2026-05-06 03:13 | -2.74947 | -60.66312 | 1627 ft | 150 kts | 123° |
| 2026-05-06 03:13 | -2.75513 | -60.65443 | 1638 ft | 149 kts | 124° |
| 2026-05-06 03:13 | -2.76179 | -60.64644 | 1646 ft | 150 kts | 132° |
| 2026-05-06 03:13 | -2.76888 | -60.63882 | 1648 ft | 150 kts | 133° |
| 2026-05-06 03:14 | -2.77604 | -60.63124 | 1649 ft | 150 kts | 133° |
| 2026-05-06 03:14 | -2.78318 | -60.62369 | 1650 ft | 149 kts | 133° |
| 2026-05-06 03:14 | -2.79033 | -60.61610 | 1650 ft | 150 kts | 133° |
| 2026-05-06 03:14 | -2.79724 | -60.60878 | 1649 ft | 150 kts | 133° |
| 2026-05-06 03:15 | -2.80441 | -60.60117 | 1652 ft | 150 kts | 133° |
| 2026-05-06 03:15 | -2.81159 | -60.59360 | 1655 ft | 150 kts | 133° |
| 2026-05-06 03:15 | -2.81876 | -60.58606 | 1656 ft | 149 kts | 134° |
| 2026-05-06 03:15 | -2.82593 | -60.57856 | 1655 ft | 148 kts | 134° |
| 2026-05-06 03:16 | -2.83309 | -60.57107 | 1652 ft | 149 kts | 134° |
| 2026-05-06 03:16 | -2.84024 | -60.56353 | 1648 ft | 150 kts | 134° |
| 2026-05-06 03:16 | -2.84739 | -60.55593 | 1647 ft | 150 kts | 133° |
| 2026-05-06 03:16 | -2.85445 | -60.54823 | 1646 ft | 150 kts | 131° |
| 2026-05-06 03:17 | -2.86135 | -60.54041 | 1646 ft | 150 kts | 131° |
| 2026-05-06 03:17 | -2.86808 | -60.53262 | 1649 ft | 150 kts | 130° |
| 2026-05-06 03:17 | -2.87481 | -60.52467 | 1650 ft | 150 kts | 130° |
| 2026-05-06 03:17 | -2.88154 | -60.51671 | 1651 ft | 150 kts | 130° |
| 2026-05-06 03:18 | -2.88826 | -60.50874 | 1651 ft | 149 kts | 130° |
| 2026-05-06 03:18 | -2.89497 | -60.50079 | 1650 ft | 150 kts | 130° |
| 2026-05-06 03:18 | -2.90169 | -60.49282 | 1650 ft | 150 kts | 130° |
| 2026-05-06 03:18 | -2.90840 | -60.48485 | 1651 ft | 150 kts | 130° |
| 2026-05-06 03:19 | -2.91513 | -60.47686 | 1652 ft | 150 kts | 130° |
| 2026-05-06 03:19 | -2.92173 | -60.46906 | 1670 ft | 140 kts | 131° |
| 2026-05-06 03:19 | -2.92806 | -60.46165 | 1650 ft | 141 kts | 130° |
| 2026-05-06 03:19 | -2.93440 | -60.45418 | 1651 ft | 141 kts | 130° |
| 2026-05-06 03:20 | -2.94703 | -60.43916 | 1652 ft | 141 kts | 130° |
| 2026-05-06 03:20 | -2.95333 | -60.43166 | 1650 ft | 141 kts | 130° |
| 2026-05-06 03:20 | -2.95961 | -60.42411 | 1651 ft | 141 kts | 130° |
| 2026-05-06 03:21 | -2.96590 | -60.41659 | 1650 ft | 141 kts | 130° |
| 2026-05-06 03:21 | -2.97171 | -60.40866 | 1648 ft | 143 kts | 117° |
| 2026-05-06 03:21 | -2.97350 | -60.39911 | 1652 ft | 140 kts | 90° |
| 2026-05-06 03:21 | -2.97282 | -60.38936 | 1650 ft | 141 kts | 85° |
| 2026-05-06 03:22 | -2.97187 | -60.37980 | 1649 ft | 140 kts | 85° |
| 2026-05-06 03:22 | -2.97084 | -60.37001 | 1651 ft | 141 kts | 85° |
| 2026-05-06 03:22 | -2.96982 | -60.36023 | 1651 ft | 141 kts | 85° |
| 2026-05-06 03:22 | -2.96880 | -60.35045 | 1651 ft | 141 kts | 85° |
| 2026-05-06 03:23 | -2.96778 | -60.34068 | 1651 ft | 141 kts | 85° |
| 2026-05-06 03:23 | -2.96676 | -60.33090 | 1651 ft | 141 kts | 85° |
| 2026-05-06 03:23 | -2.96574 | -60.32112 | 1651 ft | 141 kts | 85° |
| 2026-05-06 03:23 | -2.96487 | -60.31131 | 1651 ft | 141 kts | 86° |
| 2026-05-06 03:24 | -2.96418 | -60.30166 | 1651 ft | 141 kts | 87° |
| 2026-05-06 03:24 | -2.96350 | -60.29185 | 1651 ft | 141 kts | 87° |
| 2026-05-06 03:24 | -2.96282 | -60.28203 | 1651 ft | 141 kts | 87° |
| 2026-05-06 03:24 | -2.96213 | -60.27224 | 1651 ft | 141 kts | 87° |
| 2026-05-06 03:25 | -2.96146 | -60.26247 | 1650 ft | 141 kts | 87° |
| 2026-05-06 03:25 | -2.96077 | -60.25267 | 1651 ft | 141 kts | 87° |
| 2026-05-06 03:25 | -2.96009 | -60.24288 | 1653 ft | 140 kts | 87° |
| 2026-05-06 03:25 | -2.95977 | -60.23325 | 1649 ft | 139 kts | 90° |
| 2026-05-06 03:26 | -2.95962 | -60.22358 | 1651 ft | 138 kts | 90° |
| 2026-05-06 03:26 | -2.95948 | -60.21397 | 1655 ft | 137 kts | 90° |
| 2026-05-06 03:26 | -2.95942 | -60.20518 | 1683 ft | 112 kts | 92° |
| 2026-05-06 03:26 | -2.95944 | -60.19808 | 1651 ft | 100 kts | 91° |
| 2026-05-06 03:27 | -2.95943 | -60.19099 | 1652 ft | 104 kts | 91° |
| 2026-05-06 03:27 | -2.95939 | -60.18369 | 1651 ft | 105 kts | 91° |
| 2026-05-06 03:27 | -2.95935 | -60.17637 | 1651 ft | 105 kts | 91° |
| 2026-05-06 03:27 | -2.95931 | -60.16905 | 1651 ft | 105 kts | 91° |
| 2026-05-06 03:28 | -2.95927 | -60.16175 | 1651 ft | 105 kts | 91° |
| 2026-05-06 03:28 | -2.95923 | -60.15442 | 1651 ft | 105 kts | 91° |
| 2026-05-06 03:28 | -2.95919 | -60.14713 | 1651 ft | 105 kts | 91° |
| 2026-05-06 03:28 | -2.95914 | -60.13983 | 1651 ft | 105 kts | 91° |
| 2026-05-06 03:29 | -2.95915 | -60.13263 | 1652 ft | 105 kts | 91° |
| 2026-05-06 03:29 | -2.95919 | -60.12538 | 1653 ft | 104 kts | 90° |
| 2026-05-06 03:29 | -2.95930 | -60.11815 | 1652 ft | 104 kts | 91° |
| 2026-05-06 03:29 | -2.95944 | -60.11094 | 1654 ft | 103 kts | 91° |
| 2026-05-06 03:30 | -2.95959 | -60.10377 | 1650 ft | 103 kts | 91° |
| 2026-05-06 03:30 | -2.95971 | -60.09658 | 1651 ft | 103 kts | 91° |
| 2026-05-06 03:30 | -2.95983 | -60.08941 | 1650 ft | 103 kts | 91° |
| 2026-05-06 03:30 | -2.95993 | -60.08224 | 1652 ft | 103 kts | 91° |
| 2026-05-06 03:31 | -2.95997 | -60.07504 | 1649 ft | 104 kts | 90° |
| 2026-05-06 03:31 | -2.95999 | -60.06779 | 1650 ft | 104 kts | 91° |
| 2026-05-06 03:31 | -2.96050 | -60.06056 | 1649 ft | 105 kts | 109° |
| 2026-05-06 03:31 | -2.96512 | -60.05515 | 1650 ft | 105 kts | 152° |
| 2026-05-06 03:32 | -2.97203 | -60.05369 | 1536 ft | 103 kts | 178° |
| 2026-05-06 03:32 | -2.97921 | -60.05345 | 1403 ft | 103 kts | 181° |
| 2026-05-06 03:32 | -2.98650 | -60.05343 | 1257 ft | 104 kts | 181° |
| 2026-05-06 03:32 | -2.99362 | -60.05354 | 1196 ft | 104 kts | 183° |
| 2026-05-06 03:33 | -3.00086 | -60.05374 | 1174 ft | 104 kts | 183° |
| 2026-05-06 03:33 | -3.00808 | -60.05394 | 1163 ft | 104 kts | 183° |
| 2026-05-06 03:33 | -3.01524 | -60.05457 | 1155 ft | 104 kts | 199° |
| 2026-05-06 03:33 | -3.02060 | -60.05915 | 1154 ft | 104 kts | 243° |
| 2026-05-06 03:34 | -3.02238 | -60.06611 | 1153 ft | 103 kts | 263° |
| 2026-05-06 03:34 | -3.02316 | -60.07327 | 1152 ft | 103 kts | 266° |
| 2026-05-06 03:34 | -3.02386 | -60.08048 | 1220 ft | 106 kts | 265° |
| 2026-05-06 03:34 | -3.02585 | -60.08767 | 1409 ft | 107 kts | 247° |
| 2026-05-06 03:35 | -3.03001 | -60.09365 | 1598 ft | 110 kts | 225° |
| 2026-05-06 03:35 | -3.03687 | -60.09782 | 1619 ft | 122 kts | 202° |
| 2026-05-06 03:35 | -3.04534 | -60.09900 | 1724 ft | 117 kts | 173° |
| 2026-05-06 03:35 | -3.04997 | -60.09447 | 2034 ft | 94 kts | 86° |
| 2026-05-06 03:36 | -3.04681 | -60.08902 | 1749 ft | 88 kts | 51° |
| 2026-05-06 03:36 | -3.04303 | -60.08414 | 1365 ft | 92 kts | 59° |
| 2026-05-06 03:36 | -3.04039 | -60.07835 | 950 ft | 89 kts | 77° |
| 2026-05-06 03:36 | -3.03948 | -60.07244 | 683 ft | 82 kts | 87° |
| 2026-05-06 03:37 | -3.03891 | -60.06666 | 508 ft | 87 kts | 88° |
| 2026-05-06 03:37 | -3.03861 | -60.06055 | 370 ft | 82 kts | 90° |
| 2026-05-06 03:37 | -3.03867 | -60.05540 | 345 ft | 67 kts | 92° |
| 2026-05-06 03:37 | -3.03868 | -60.05131 | 347 ft | 51 kts | 93° |
| 2026-05-06 03:38 | -3.03865 | -60.04780 | 339 ft | 55 kts | 93° |
| 2026-05-06 03:38 | -3.03868 | -60.04388 | 311 ft | 53 kts | 92° |
| 2026-05-06 03:38 | -3.03867 | -60.04086 | 299 ft | 31 kts | 92° |
| 2026-05-06 03:38 | -3.03875 | -60.03899 | 295 ft | 21 kts | 96° |
| 2026-05-06 03:39 | -3.03796 | -60.03773 | 296 ft | 22 kts | 24° |
| 2026-05-06 03:39 | -3.03682 | -60.03887 | 317 ft | 42 kts | 322° |
| 2026-05-06 03:39 | -3.03572 | -60.04253 | 314 ft | 54 kts | 311° |
| 2026-05-06 03:39 | -3.03318 | -60.04357 | 366 ft | 41 kts | 100° |
| 2026-05-06 03:40 | -3.03200 | -60.03997 | 299 ft | 58 kts | 94° |
| 2026-05-06 03:40 | -3.03174 | -60.03774 | 287 ft | 13 kts | 190° |
| 2026-05-06 03:40 | -3.03172 | -60.03728 | 286 ft | 6 kts | 278° |
| 2026-05-06 03:40 | -3.03190 | -60.03735 | 316 ft | 4 kts | 262° |
| 2026-05-06 03:41 | -3.03181 | -60.03765 | 271 ft | 2 kts | 250° |
| 2026-05-06 03:41 | -3.03190 | -60.03776 | 268 ft | 0 kts | 254° |